sensor_id;sensor_type;location;lat;lon;timestamp;temperature;humidity
8436;DHT22;4255;48.730;9.156;2023-04-03T00:00:30;5.10;99.90
8436;DHT22;4255;48.730;9.156;2023-04-03T00:02:56;5.10;99.90
8436;DHT22;4255;48.730;9.156;2023-04-03T00:05:22;4.80;99.90
8436;DHT22;4255;48.730;9.156;2023-04-03T00:07:48;4.60;99.90
8436;DHT22;4255;48.730;9.156;2023-04-03T00:10:15;4.30;99.90
8436;DHT22;4255;48.730;9.156;2023-04-03T00:12:41;4.40;99.90
8436;DHT22;4255;48.730;9.156;2023-04-03T00:15:07;4.30;99.90
8436;DHT22;4255;48.730;9.156;2023-04-03T00:17:33;4.30;99.90
8436;DHT22;4255;48.730;9.156;2023-04-03T00:19:58;4.40;99.90
8436;DHT22;4255;48.730;9.156;2023-04-03T00:22:24;4.50;99.90
8436;DHT22;4255;48.730;9.156;2023-04-03T00:24:51;4.40;99.90
8436;DHT22;4255;48.730;9.156;2023-04-03T00:27:17;4.50;99.90
8436;DHT22;4255;48.730;9.156;2023-04-03T00:29:43;4.20;99.90
8436;DHT22;4255;48.730;9.156;2023-04-03T00:32:08;4.00;99.90
8436;DHT22;4255;48.730;9.156;2023-04-03T00:34:34;4.10;99.90
8436;DHT22;4255;48.730;9.156;2023-04-03T00:37:00;4.10;99.90
8436;DHT22;4255;48.730;9.156;2023-04-03T00:39:25;4.00;99.90
8436;DHT22;4255;48.730;9.156;2023-04-03T00:41:51;3.80;99.90
8436;DHT22;4255;48.730;9.156;2023-04-03T00:47:13;4.10;99.90
8436;DHT22;4255;48.730;9.156;2023-04-03T00:49:40;4.20;99.90
8436;DHT22;4255;48.730;9.156;2023-04-03T00:52:11;4.30;99.90
8436;DHT22;4255;48.730;9.156;2023-04-03T00:54:38;4.40;99.90
8436;DHT22;4255;48.730;9.156;2023-04-03T00:57:05;4.40;99.90
8436;DHT22;4255;48.730;9.156;2023-04-03T00:59:38;4.20;99.90
8436;DHT22;4255;48.730;9.156;2023-04-03T01:02:05;4.10;99.90
8436;DHT22;4255;48.730;9.156;2023-04-03T01:04:34;4.10;99.90
8436;DHT22;4255;48.730;9.156;2023-04-03T01:07:13;4.20;99.90
8436;DHT22;4255;48.730;9.156;2023-04-03T01:09:40;4.10;99.90
8436;DHT22;4255;48.730;9.156;2023-04-03T01:12:17;4.30;99.90
8436;DHT22;4255;48.730;9.156;2023-04-03T01:14:55;4.10;99.90
8436;DHT22;4255;48.730;9.156;2023-04-03T01:17:36;4.10;99.90
8436;DHT22;4255;48.730;9.156;2023-04-03T01:25:26;4.20;99.90
8436;DHT22;4255;48.730;9.156;2023-04-03T01:27:52;4.20;99.90
8436;DHT22;4255;48.730;9.156;2023-04-03T01:30:20;4.30;99.90
8436;DHT22;4255;48.730;9.156;2023-04-03T01:32:46;4.20;99.90
8436;DHT22;4255;48.730;9.156;2023-04-03T01:35:12;4.20;99.90
8436;DHT22;4255;48.730;9.156;2023-04-03T01:37:38;4.10;99.90
8436;DHT22;4255;48.730;9.156;2023-04-03T01:40:04;4.00;99.90
8436;DHT22;4255;48.730;9.156;2023-04-03T01:42:31;4.10;99.90
8436;DHT22;4255;48.730;9.156;2023-04-03T01:44:56;4.00;99.90
8436;DHT22;4255;48.730;9.156;2023-04-03T01:47:22;4.00;99.90
8436;DHT22;4255;48.730;9.156;2023-04-03T01:49:48;4.00;99.90
8436;DHT22;4255;48.730;9.156;2023-04-03T01:52:14;3.90;99.90
8436;DHT22;4255;48.730;9.156;2023-04-03T01:54:39;4.00;99.90
8436;DHT22;4255;48.730;9.156;2023-04-03T01:57:05;3.80;99.90
8436;DHT22;4255;48.730;9.156;2023-04-03T01:59:30;3.80;99.90
8436;DHT22;4255;48.730;9.156;2023-04-03T02:01:56;3.80;99.90
8436;DHT22;4255;48.730;9.156;2023-04-03T02:04:22;3.90;99.90
8436;DHT22;4255;48.730;9.156;2023-04-03T02:06:48;4.10;99.90
8436;DHT22;4255;48.730;9.156;2023-04-03T02:09:13;3.90;99.90
8436;DHT22;4255;48.730;9.156;2023-04-03T02:11:39;4.00;99.90
8436;DHT22;4255;48.730;9.156;2023-04-03T02:14:05;4.10;99.90
8436;DHT22;4255;48.730;9.156;2023-04-03T02:16:31;4.00;99.90
8436;DHT22;4255;48.730;9.156;2023-04-03T02:18:57;4.00;99.90
8436;DHT22;4255;48.730;9.156;2023-04-03T02:21:23;4.00;99.90
8436;DHT22;4255;48.730;9.156;2023-04-03T02:23:49;3.90;99.90
8436;DHT22;4255;48.730;9.156;2023-04-03T02:26:15;3.90;99.90
8436;DHT22;4255;48.730;9.156;2023-04-03T02:28:42;4.00;99.90
8436;DHT22;4255;48.730;9.156;2023-04-03T02:31:08;4.00;99.90
8436;DHT22;4255;48.730;9.156;2023-04-03T02:33:35;3.90;99.90
8436;DHT22;4255;48.730;9.156;2023-04-03T02:36:05;4.00;99.90
8436;DHT22;4255;48.730;9.156;2023-04-03T02:38:31;3.70;99.90
8436;DHT22;4255;48.730;9.156;2023-04-03T02:41:05;3.60;99.90
8436;DHT22;4255;48.730;9.156;2023-04-03T02:43:31;3.60;99.90
8436;DHT22;4255;48.730;9.156;2023-04-03T02:45:56;3.60;99.90
8436;DHT22;4255;48.730;9.156;2023-04-03T02:48:23;3.70;99.90
8436;DHT22;4255;48.730;9.156;2023-04-03T02:50:49;3.80;99.90
8436;DHT22;4255;48.730;9.156;2023-04-03T02:53:15;3.80;99.90
8436;DHT22;4255;48.730;9.156;2023-04-03T02:55:40;3.80;99.90
8436;DHT22;4255;48.730;9.156;2023-04-03T02:58:06;3.70;99.90
8436;DHT22;4255;48.730;9.156;2023-04-03T03:00:32;3.80;99.90
8436;DHT22;4255;48.730;9.156;2023-04-03T03:02:58;3.70;99.90
8436;DHT22;4255;48.730;9.156;2023-04-03T03:05:23;3.50;99.90
8436;DHT22;4255;48.730;9.156;2023-04-03T03:07:49;3.60;99.90
8436;DHT22;4255;48.730;9.156;2023-04-03T03:10:15;3.60;99.90
8436;DHT22;4255;48.730;9.156;2023-04-03T03:12:41;3.50;99.90
8436;DHT22;4255;48.730;9.156;2023-04-03T03:15:07;3.50;99.90
8436;DHT22;4255;48.730;9.156;2023-04-03T03:17:33;3.60;99.90
8436;DHT22;4255;48.730;9.156;2023-04-03T03:19:59;3.60;99.90
8436;DHT22;4255;48.730;9.156;2023-04-03T03:22:26;3.60;99.90
8436;DHT22;4255;48.730;9.156;2023-04-03T03:24:51;3.60;99.90
8436;DHT22;4255;48.730;9.156;2023-04-03T03:27:17;3.60;99.90
8436;DHT22;4255;48.730;9.156;2023-04-03T03:29:43;3.80;99.90
8436;DHT22;4255;48.730;9.156;2023-04-03T03:32:08;3.90;99.90
8436;DHT22;4255;48.730;9.156;2023-04-03T03:34:34;3.90;99.90
8436;DHT22;4255;48.730;9.156;2023-04-03T03:37:00;3.90;99.90
8436;DHT22;4255;48.730;9.156;2023-04-03T03:39:26;3.80;99.90
8436;DHT22;4255;48.730;9.156;2023-04-03T03:41:52;4.10;99.90
8436;DHT22;4255;48.730;9.156;2023-04-03T03:44:19;4.00;99.90
8436;DHT22;4255;48.730;9.156;2023-04-03T03:46:45;3.70;99.90
8436;DHT22;4255;48.730;9.156;2023-04-03T03:49:11;3.70;99.90
8436;DHT22;4255;48.730;9.156;2023-04-03T03:51:37;3.80;99.90
8436;DHT22;4255;48.730;9.156;2023-04-03T03:54:03;3.80;99.90
8436;DHT22;4255;48.730;9.156;2023-04-03T03:56:29;3.80;99.90
8436;DHT22;4255;48.730;9.156;2023-04-03T03:58:55;3.70;99.90
8436;DHT22;4255;48.730;9.156;2023-04-03T04:01:22;3.80;99.90
8436;DHT22;4255;48.730;9.156;2023-04-03T04:03:48;3.90;99.90
8436;DHT22;4255;48.730;9.156;2023-04-03T04:06:14;3.90;99.90
8436;DHT22;4255;48.730;9.156;2023-04-03T04:08:39;3.90;99.90
8436;DHT22;4255;48.730;9.156;2023-04-03T04:11:05;3.90;99.90
8436;DHT22;4255;48.730;9.156;2023-04-03T04:13:31;3.80;99.90
8436;DHT22;4255;48.730;9.156;2023-04-03T04:15:56;3.80;99.90
8436;DHT22;4255;48.730;9.156;2023-04-03T04:18:22;3.80;99.90
8436;DHT22;4255;48.730;9.156;2023-04-03T04:20:49;3.80;99.90
8436;DHT22;4255;48.730;9.156;2023-04-03T04:23:15;3.80;99.90
8436;DHT22;4255;48.730;9.156;2023-04-03T04:25:41;3.80;99.90
8436;DHT22;4255;48.730;9.156;2023-04-03T04:28:09;3.90;99.90
8436;DHT22;4255;48.730;9.156;2023-04-03T04:30:34;3.90;99.90
8436;DHT22;4255;48.730;9.156;2023-04-03T04:33:00;3.60;99.90
8436;DHT22;4255;48.730;9.156;2023-04-03T04:35:26;3.60;99.90
8436;DHT22;4255;48.730;9.156;2023-04-03T04:37:51;3.70;99.90
8436;DHT22;4255;48.730;9.156;2023-04-03T04:40:17;3.90;99.90
8436;DHT22;4255;48.730;9.156;2023-04-03T04:42:43;4.00;99.90
8436;DHT22;4255;48.730;9.156;2023-04-03T04:45:09;4.10;99.90
8436;DHT22;4255;48.730;9.156;2023-04-03T04:47:34;4.20;99.90
8436;DHT22;4255;48.730;9.156;2023-04-03T04:50:00;4.30;99.90
8436;DHT22;4255;48.730;9.156;2023-04-03T04:52:25;4.10;99.90
8436;DHT22;4255;48.730;9.156;2023-04-03T04:54:51;4.20;99.90
8436;DHT22;4255;48.730;9.156;2023-04-03T04:57:17;4.40;99.90
8436;DHT22;4255;48.730;9.156;2023-04-03T04:59:42;4.20;99.90
8436;DHT22;4255;48.730;9.156;2023-04-03T05:02:08;4.30;99.90
8436;DHT22;4255;48.730;9.156;2023-04-03T05:04:33;4.40;99.90
8436;DHT22;4255;48.730;9.156;2023-04-03T05:06:59;4.40;99.90
8436;DHT22;4255;48.730;9.156;2023-04-03T05:09:25;4.10;99.90
8436;DHT22;4255;48.730;9.156;2023-04-03T05:11:51;4.30;99.90
8436;DHT22;4255;48.730;9.156;2023-04-03T05:14:16;4.20;99.90
8436;DHT22;4255;48.730;9.156;2023-04-03T05:16:42;4.30;99.90
8436;DHT22;4255;48.730;9.156;2023-04-03T05:19:08;4.20;99.90
8436;DHT22;4255;48.730;9.156;2023-04-03T05:21:34;4.30;99.90
8436;DHT22;4255;48.730;9.156;2023-04-03T05:24:00;4.30;99.90
8436;DHT22;4255;48.730;9.156;2023-04-03T05:26:31;4.30;99.90
8436;DHT22;4255;48.730;9.156;2023-04-03T05:28:57;4.20;99.90
8436;DHT22;4255;48.730;9.156;2023-04-03T05:31:23;4.00;99.90
8436;DHT22;4255;48.730;9.156;2023-04-03T05:33:49;3.90;99.90
8436;DHT22;4255;48.730;9.156;2023-04-03T05:36:15;4.00;99.90
8436;DHT22;4255;48.730;9.156;2023-04-03T05:38:41;4.00;99.90
8436;DHT22;4255;48.730;9.156;2023-04-03T05:41:06;3.90;99.90
8436;DHT22;4255;48.730;9.156;2023-04-03T05:43:32;3.90;99.90
8436;DHT22;4255;48.730;9.156;2023-04-03T05:46:00;4.00;99.90
8436;DHT22;4255;48.730;9.156;2023-04-03T05:48:25;4.00;99.90
8436;DHT22;4255;48.730;9.156;2023-04-03T05:50:51;4.10;99.90
8436;DHT22;4255;48.730;9.156;2023-04-03T05:53:29;4.20;99.90
8436;DHT22;4255;48.730;9.156;2023-04-03T05:55:56;4.40;99.90
8436;DHT22;4255;48.730;9.156;2023-04-03T05:58:22;4.70;99.90
8436;DHT22;4255;48.730;9.156;2023-04-03T06:00:47;4.60;99.90
8436;DHT22;4255;48.730;9.156;2023-04-03T06:03:13;4.70;99.90
8436;DHT22;4255;48.730;9.156;2023-04-03T06:05:39;4.80;99.90
8436;DHT22;4255;48.730;9.156;2023-04-03T06:08:05;4.50;99.90
8436;DHT22;4255;48.730;9.156;2023-04-03T06:10:31;4.30;99.90
8436;DHT22;4255;48.730;9.156;2023-04-03T06:12:56;4.20;99.90
8436;DHT22;4255;48.730;9.156;2023-04-03T06:15:22;4.20;99.90
8436;DHT22;4255;48.730;9.156;2023-04-03T06:17:48;4.30;99.90
8436;DHT22;4255;48.730;9.156;2023-04-03T06:20:14;4.30;99.90
8436;DHT22;4255;48.730;9.156;2023-04-03T06:22:39;4.20;99.90
8436;DHT22;4255;48.730;9.156;2023-04-03T06:25:05;4.30;99.90
8436;DHT22;4255;48.730;9.156;2023-04-03T06:27:31;4.20;99.90
8436;DHT22;4255;48.730;9.156;2023-04-03T06:30:04;4.10;99.90
8436;DHT22;4255;48.730;9.156;2023-04-03T06:32:30;4.00;99.90
8436;DHT22;4255;48.730;9.156;2023-04-03T06:34:56;4.20;99.90
8436;DHT22;4255;48.730;9.156;2023-04-03T06:37:23;4.40;99.90
8436;DHT22;4255;48.730;9.156;2023-04-03T06:39:51;4.30;99.90
8436;DHT22;4255;48.730;9.156;2023-04-03T06:42:17;4.30;99.90
8436;DHT22;4255;48.730;9.156;2023-04-03T06:44:43;4.30;99.90
8436;DHT22;4255;48.730;9.156;2023-04-03T06:47:13;4.50;99.90
8436;DHT22;4255;48.730;9.156;2023-04-03T06:49:39;4.40;99.90
8436;DHT22;4255;48.730;9.156;2023-04-03T06:52:05;4.50;99.90
8436;DHT22;4255;48.730;9.156;2023-04-03T06:54:31;4.60;99.90
8436;DHT22;4255;48.730;9.156;2023-04-03T06:56:57;4.70;99.90
8436;DHT22;4255;48.730;9.156;2023-04-03T06:59:23;4.50;99.90
8436;DHT22;4255;48.730;9.156;2023-04-03T07:01:49;4.40;99.90
8436;DHT22;4255;48.730;9.156;2023-04-03T07:04:15;4.30;99.90
8436;DHT22;4255;48.730;9.156;2023-04-03T07:06:41;4.10;99.90
8436;DHT22;4255;48.730;9.156;2023-04-03T07:09:09;4.10;99.90
8436;DHT22;4255;48.730;9.156;2023-04-03T07:11:35;4.40;99.90
8436;DHT22;4255;48.730;9.156;2023-04-03T07:14:02;4.90;99.90
8436;DHT22;4255;48.730;9.156;2023-04-03T07:16:27;4.80;99.90
8436;DHT22;4255;48.730;9.156;2023-04-03T07:18:53;4.80;99.90
8436;DHT22;4255;48.730;9.156;2023-04-03T07:21:19;4.90;99.90
8436;DHT22;4255;48.730;9.156;2023-04-03T07:23:44;5.10;99.90
8436;DHT22;4255;48.730;9.156;2023-04-03T07:26:10;5.20;99.90
8436;DHT22;4255;48.730;9.156;2023-04-03T07:28:35;5.20;99.90
8436;DHT22;4255;48.730;9.156;2023-04-03T07:31:07;4.90;99.90
8436;DHT22;4255;48.730;9.156;2023-04-03T07:33:34;4.80;99.90
8436;DHT22;4255;48.730;9.156;2023-04-03T07:36:00;4.70;99.90
8436;DHT22;4255;48.730;9.156;2023-04-03T07:38:26;4.90;99.90
8436;DHT22;4255;48.730;9.156;2023-04-03T07:40:52;4.80;99.90
8436;DHT22;4255;48.730;9.156;2023-04-03T07:43:18;4.70;99.90
8436;DHT22;4255;48.730;9.156;2023-04-03T07:45:46;4.70;99.90
8436;DHT22;4255;48.730;9.156;2023-04-03T07:48:15;4.80;99.90
8436;DHT22;4255;48.730;9.156;2023-04-03T07:50:41;4.80;99.90
8436;DHT22;4255;48.730;9.156;2023-04-03T07:53:07;4.70;99.90
8436;DHT22;4255;48.730;9.156;2023-04-03T07:55:33;4.60;99.90
8436;DHT22;4255;48.730;9.156;2023-04-03T07:57:59;4.70;99.90
8436;DHT22;4255;48.730;9.156;2023-04-03T08:00:25;4.90;99.90
8436;DHT22;4255;48.730;9.156;2023-04-03T08:02:50;5.00;99.90
8436;DHT22;4255;48.730;9.156;2023-04-03T08:05:20;5.10;99.90
8436;DHT22;4255;48.730;9.156;2023-04-03T08:07:47;5.10;99.90
8436;DHT22;4255;48.730;9.156;2023-04-03T08:10:13;5.20;99.90
8436;DHT22;4255;48.730;9.156;2023-04-03T08:12:39;5.40;99.90
8436;DHT22;4255;48.730;9.156;2023-04-03T08:15:06;5.20;99.90
8436;DHT22;4255;48.730;9.156;2023-04-03T08:17:32;5.20;99.90
8436;DHT22;4255;48.730;9.156;2023-04-03T08:19:58;5.30;99.90
8436;DHT22;4255;48.730;9.156;2023-04-03T08:22:23;5.50;99.90
8436;DHT22;4255;48.730;9.156;2023-04-03T08:24:50;5.40;99.90
8436;DHT22;4255;48.730;9.156;2023-04-03T08:27:15;5.40;99.90
8436;DHT22;4255;48.730;9.156;2023-04-03T08:29:41;5.50;99.90
8436;DHT22;4255;48.730;9.156;2023-04-03T08:32:07;5.40;99.90
8436;DHT22;4255;48.730;9.156;2023-04-03T08:34:32;5.50;99.90
8436;DHT22;4255;48.730;9.156;2023-04-03T08:37:03;5.50;99.90
8436;DHT22;4255;48.730;9.156;2023-04-03T08:39:29;5.70;99.90
8436;DHT22;4255;48.730;9.156;2023-04-03T08:41:58;5.50;99.90
8436;DHT22;4255;48.730;9.156;2023-04-03T08:49:59;5.30;99.90
8436;DHT22;4255;48.730;9.156;2023-04-03T08:52:36;5.60;99.90
8436;DHT22;4255;48.730;9.156;2023-04-03T08:55:20;5.80;99.90
8436;DHT22;4255;48.730;9.156;2023-04-03T08:57:47;5.70;99.90
8436;DHT22;4255;48.730;9.156;2023-04-03T09:00:21;5.80;99.90
8436;DHT22;4255;48.730;9.156;2023-04-03T09:02:50;6.00;99.90
8436;DHT22;4255;48.730;9.156;2023-04-03T09:05:18;6.00;99.90
8436;DHT22;4255;48.730;9.156;2023-04-03T09:07:51;6.20;99.90
8436;DHT22;4255;48.730;9.156;2023-04-03T09:10:30;6.50;99.90
8436;DHT22;4255;48.730;9.156;2023-04-03T09:13:30;6.40;99.90
8436;DHT22;4255;48.730;9.156;2023-04-03T09:16:00;6.30;99.90
8436;DHT22;4255;48.730;9.156;2023-04-03T09:18:31;6.40;99.90
8436;DHT22;4255;48.730;9.156;2023-04-03T09:23:56;6.80;99.90
8436;DHT22;4255;48.730;9.156;2023-04-03T09:26:36;6.60;99.90
8436;DHT22;4255;48.730;9.156;2023-04-03T09:29:06;6.40;99.90
8436;DHT22;4255;48.730;9.156;2023-04-03T09:31:39;6.40;99.90
8436;DHT22;4255;48.730;9.156;2023-04-03T09:34:27;6.20;99.90
8436;DHT22;4255;48.730;9.156;2023-04-03T09:36:58;6.30;99.90
8436;DHT22;4255;48.730;9.156;2023-04-03T09:39:29;6.40;99.90
8436;DHT22;4255;48.730;9.156;2023-04-03T09:42:00;6.40;99.90
8436;DHT22;4255;48.730;9.156;2023-04-03T09:44:38;6.60;99.90
8436;DHT22;4255;48.730;9.156;2023-04-03T09:49:49;6.70;99.90
8436;DHT22;4255;48.730;9.156;2023-04-03T09:52:25;6.70;99.90
8436;DHT22;4255;48.730;9.156;2023-04-03T09:54:51;6.50;99.90
8436;DHT22;4255;48.730;9.156;2023-04-03T09:57:16;6.60;99.90
8436;DHT22;4255;48.730;9.156;2023-04-03T10:00:00;7.00;99.90
8436;DHT22;4255;48.730;9.156;2023-04-03T10:02:38;7.00;99.90
8436;DHT22;4255;48.730;9.156;2023-04-03T10:10:46;6.30;99.90
8436;DHT22;4255;48.730;9.156;2023-04-03T10:13:14;6.40;99.90
8436;DHT22;4255;48.730;9.156;2023-04-03T10:15:53;6.50;99.90
8436;DHT22;4255;48.730;9.156;2023-04-03T10:21:34;6.40;99.90
8436;DHT22;4255;48.730;9.156;2023-04-03T10:26:58;6.40;99.90
8436;DHT22;4255;48.730;9.156;2023-04-03T10:35:12;5.60;99.90
8436;DHT22;4255;48.730;9.156;2023-04-03T10:37:54;6.00;99.90
8436;DHT22;4255;48.730;9.156;2023-04-03T10:40:34;6.00;99.90
8436;DHT22;4255;48.730;9.156;2023-04-03T10:50:44;6.10;99.90
8436;DHT22;4255;48.730;9.156;2023-04-03T10:56:45;5.90;99.90
8436;DHT22;4255;48.730;9.156;2023-04-03T11:02:37;6.20;99.90
8436;DHT22;4255;48.730;9.156;2023-04-03T11:05:18;6.50;99.90
8436;DHT22;4255;48.730;9.156;2023-04-03T11:07:50;6.80;99.90
8436;DHT22;4255;48.730;9.156;2023-04-03T11:11:04;6.80;99.90
8436;DHT22;4255;48.730;9.156;2023-04-03T11:16:08;6.60;99.90
8436;DHT22;4255;48.730;9.156;2023-04-03T11:18:44;6.60;99.90
8436;DHT22;4255;48.730;9.156;2023-04-03T11:23:51;6.20;99.90
8436;DHT22;4255;48.730;9.156;2023-04-03T11:26:22;6.30;99.90
8436;DHT22;4255;48.730;9.156;2023-04-03T11:29:04;6.40;99.90
8436;DHT22;4255;48.730;9.156;2023-04-03T11:34:36;6.70;99.90
8436;DHT22;4255;48.730;9.156;2023-04-03T11:39:56;6.80;99.90
8436;DHT22;4255;48.730;9.156;2023-04-03T11:42:38;6.60;99.90
8436;DHT22;4255;48.730;9.156;2023-04-03T11:48:00;6.60;99.90
8436;DHT22;4255;48.730;9.156;2023-04-03T11:50:41;6.60;99.90
8436;DHT22;4255;48.730;9.156;2023-04-03T11:58:17;6.80;99.90
8436;DHT22;4255;48.730;9.156;2023-04-03T12:01:10;6.90;99.90
8436;DHT22;4255;48.730;9.156;2023-04-03T12:16:25;7.20;99.90
8436;DHT22;4255;48.730;9.156;2023-04-03T12:35:43;6.30;99.90
8436;DHT22;4255;48.730;9.156;2023-04-03T12:47:00;6.70;99.90
8436;DHT22;4255;48.730;9.156;2023-04-03T12:49:39;6.80;99.90
8436;DHT22;4255;48.730;9.156;2023-04-03T12:52:26;6.90;99.90
8436;DHT22;4255;48.730;9.156;2023-04-03T12:54:56;6.70;99.90
8436;DHT22;4255;48.730;9.156;2023-04-03T12:57:26;6.60;99.90
8436;DHT22;4255;48.730;9.156;2023-04-03T12:59:56;6.40;99.90
8436;DHT22;4255;48.730;9.156;2023-04-03T13:02:31;6.50;99.90
8436;DHT22;4255;48.730;9.156;2023-04-03T13:04:58;6.60;99.90
8436;DHT22;4255;48.730;9.156;2023-04-03T13:07:31;7.10;99.90
8436;DHT22;4255;48.730;9.156;2023-04-03T13:10:18;7.40;99.90
8436;DHT22;4255;48.730;9.156;2023-04-03T13:12:53;7.20;99.90
8436;DHT22;4255;48.730;9.156;2023-04-03T13:17:44;7.00;99.90
8436;DHT22;4255;48.730;9.156;2023-04-03T13:20:21;7.30;99.90
8436;DHT22;4255;48.730;9.156;2023-04-03T13:25:17;8.00;99.90
8436;DHT22;4255;48.730;9.156;2023-04-03T13:27:45;8.10;99.90
8436;DHT22;4255;48.730;9.156;2023-04-03T13:30:25;7.90;99.90
8436;DHT22;4255;48.730;9.156;2023-04-03T13:32:51;7.90;99.90
8436;DHT22;4255;48.730;9.156;2023-04-03T13:35:36;7.50;99.90
8436;DHT22;4255;48.730;9.156;2023-04-03T13:38:21;7.60;99.90
8436;DHT22;4255;48.730;9.156;2023-04-03T13:40:56;7.60;99.90
8436;DHT22;4255;48.730;9.156;2023-04-03T13:43:31;7.50;99.90
8436;DHT22;4255;48.730;9.156;2023-04-03T13:48:40;7.50;99.90
8436;DHT22;4255;48.730;9.156;2023-04-03T13:51:27;7.70;99.90
8436;DHT22;4255;48.730;9.156;2023-04-03T13:53:57;7.90;99.90
8436;DHT22;4255;48.730;9.156;2023-04-03T13:56:35;7.80;99.90
8436;DHT22;4255;48.730;9.156;2023-04-03T13:59:20;8.00;99.90
8436;DHT22;4255;48.730;9.156;2023-04-03T14:01:56;7.90;99.90
8436;DHT22;4255;48.730;9.156;2023-04-03T14:07:10;7.70;99.90
8436;DHT22;4255;48.730;9.156;2023-04-03T14:09:36;8.00;99.90
8436;DHT22;4255;48.730;9.156;2023-04-03T14:12:07;8.10;99.90
8436;DHT22;4255;48.730;9.156;2023-04-03T14:14:35;8.00;99.90
8436;DHT22;4255;48.730;9.156;2023-04-03T14:17:10;8.00;99.90
8436;DHT22;4255;48.730;9.156;2023-04-03T14:19:38;8.00;99.90
8436;DHT22;4255;48.730;9.156;2023-04-03T14:22:20;7.80;99.90
8436;DHT22;4255;48.730;9.156;2023-04-03T14:24:49;7.50;99.90
8436;DHT22;4255;48.730;9.156;2023-04-03T14:27:20;7.60;99.90
8436;DHT22;4255;48.730;9.156;2023-04-03T14:29:47;7.60;99.90
8436;DHT22;4255;48.730;9.156;2023-04-03T14:32:19;7.40;99.90
8436;DHT22;4255;48.730;9.156;2023-04-03T14:34:45;7.30;99.90
8436;DHT22;4255;48.730;9.156;2023-04-03T14:37:20;7.30;99.90
8436;DHT22;4255;48.730;9.156;2023-04-03T14:39:47;7.40;99.90
8436;DHT22;4255;48.730;9.156;2023-04-03T14:42:26;7.60;99.90
8436;DHT22;4255;48.730;9.156;2023-04-03T14:44:52;7.50;99.90
8436;DHT22;4255;48.730;9.156;2023-04-03T14:47:23;7.50;99.90
8436;DHT22;4255;48.730;9.156;2023-04-03T14:49:49;7.70;99.90
8436;DHT22;4255;48.730;9.156;2023-04-03T14:52:28;7.90;99.90
8436;DHT22;4255;48.730;9.156;2023-04-03T14:54:54;8.20;99.90
8436;DHT22;4255;48.730;9.156;2023-04-03T14:57:23;8.60;99.90
8436;DHT22;4255;48.730;9.156;2023-04-03T14:59:49;8.60;99.90
8436;DHT22;4255;48.730;9.156;2023-04-03T15:02:37;8.30;99.90
8436;DHT22;4255;48.730;9.156;2023-04-03T15:05:06;8.30;99.90
8436;DHT22;4255;48.730;9.156;2023-04-03T15:07:44;7.70;99.90
8436;DHT22;4255;48.730;9.156;2023-04-03T15:10:16;7.60;99.90
8436;DHT22;4255;48.730;9.156;2023-04-03T15:12:43;7.10;99.90
8436;DHT22;4255;48.730;9.156;2023-04-03T15:15:10;6.90;99.90
8436;DHT22;4255;48.730;9.156;2023-04-03T15:17:36;7.00;99.90
8436;DHT22;4255;48.730;9.156;2023-04-03T15:20:03;7.10;99.90
8436;DHT22;4255;48.730;9.156;2023-04-03T15:22:31;6.90;99.90
8436;DHT22;4255;48.730;9.156;2023-04-03T15:24:57;7.00;99.90
8436;DHT22;4255;48.730;9.156;2023-04-03T15:27:23;7.20;99.90
8436;DHT22;4255;48.730;9.156;2023-04-03T15:29:48;7.20;99.90
8436;DHT22;4255;48.730;9.156;2023-04-03T15:32:14;7.10;99.90
8436;DHT22;4255;48.730;9.156;2023-04-03T15:34:40;7.20;99.90
8436;DHT22;4255;48.730;9.156;2023-04-03T15:37:06;7.10;99.90
8436;DHT22;4255;48.730;9.156;2023-04-03T15:39:31;7.40;99.90
8436;DHT22;4255;48.730;9.156;2023-04-03T15:41:57;7.40;99.90
8436;DHT22;4255;48.730;9.156;2023-04-03T15:44:29;7.10;99.90
8436;DHT22;4255;48.730;9.156;2023-04-03T15:46:54;6.90;99.90
8436;DHT22;4255;48.730;9.156;2023-04-03T15:49:21;6.70;99.90
8436;DHT22;4255;48.730;9.156;2023-04-03T15:51:47;6.90;99.90
8436;DHT22;4255;48.730;9.156;2023-04-03T15:54:13;6.80;99.90
8436;DHT22;4255;48.730;9.156;2023-04-03T15:56:38;6.80;99.90
8436;DHT22;4255;48.730;9.156;2023-04-03T15:59:04;6.70;99.90
8436;DHT22;4255;48.730;9.156;2023-04-03T16:01:30;6.60;99.90
8436;DHT22;4255;48.730;9.156;2023-04-03T16:03:56;6.60;99.90
8436;DHT22;4255;48.730;9.156;2023-04-03T16:06:23;6.70;99.90
8436;DHT22;4255;48.730;9.156;2023-04-03T16:08:50;7.20;99.90
8436;DHT22;4255;48.730;9.156;2023-04-03T16:11:16;7.30;99.90
8436;DHT22;4255;48.730;9.156;2023-04-03T16:13:41;7.30;99.90
8436;DHT22;4255;48.730;9.156;2023-04-03T16:16:07;7.30;98.90
8436;DHT22;4255;48.730;9.156;2023-04-03T16:18:34;7.40;99.90
8436;DHT22;4255;48.730;9.156;2023-04-03T16:21:00;7.20;98.70
8436;DHT22;4255;48.730;9.156;2023-04-03T16:23:26;7.10;99.90
8436;DHT22;4255;48.730;9.156;2023-04-03T16:25:52;7.30;99.90
8436;DHT22;4255;48.730;9.156;2023-04-03T16:28:18;7.60;99.90
8436;DHT22;4255;48.730;9.156;2023-04-03T16:30:45;7.80;99.60
8436;DHT22;4255;48.730;9.156;2023-04-03T16:33:12;7.90;97.80
8436;DHT22;4255;48.730;9.156;2023-04-03T16:35:38;7.60;96.70
8436;DHT22;4255;48.730;9.156;2023-04-03T16:38:04;7.20;97.10
8436;DHT22;4255;48.730;9.156;2023-04-03T16:40:29;7.00;97.10
8436;DHT22;4255;48.730;9.156;2023-04-03T16:42:55;7.10;98.40
8436;DHT22;4255;48.730;9.156;2023-04-03T16:45:21;6.90;96.50
8436;DHT22;4255;48.730;9.156;2023-04-03T16:47:46;6.70;96.70
8436;DHT22;4255;48.730;9.156;2023-04-03T16:50:12;6.70;97.50
8436;DHT22;4255;48.730;9.156;2023-04-03T16:52:37;6.70;98.70
8436;DHT22;4255;48.730;9.156;2023-04-03T16:55:03;6.80;98.40
8436;DHT22;4255;48.730;9.156;2023-04-03T16:57:29;6.70;97.30
8436;DHT22;4255;48.730;9.156;2023-04-03T16:59:55;6.80;97.00
8436;DHT22;4255;48.730;9.156;2023-04-03T17:02:21;6.70;97.10
8436;DHT22;4255;48.730;9.156;2023-04-03T17:04:50;7.20;97.30
8436;DHT22;4255;48.730;9.156;2023-04-03T17:07:17;7.70;97.40
8436;DHT22;4255;48.730;9.156;2023-04-03T17:09:42;8.30;96.40
8436;DHT22;4255;48.730;9.156;2023-04-03T17:12:08;8.40;94.30
8436;DHT22;4255;48.730;9.156;2023-04-03T17:14:34;8.80;93.90
8436;DHT22;4255;48.730;9.156;2023-04-03T17:16:59;8.80;92.00
8436;DHT22;4255;48.730;9.156;2023-04-03T17:19:25;8.70;92.80
8436;DHT22;4255;48.730;9.156;2023-04-03T17:21:52;8.80;92.70
8436;DHT22;4255;48.730;9.156;2023-04-03T17:24:18;9.10;94.10
8436;DHT22;4255;48.730;9.156;2023-04-03T17:26:43;9.40;93.10
8436;DHT22;4255;48.730;9.156;2023-04-03T17:29:09;9.70;92.90
8436;DHT22;4255;48.730;9.156;2023-04-03T17:31:35;9.40;91.70
8436;DHT22;4255;48.730;9.156;2023-04-03T17:34:01;9.00;92.60
8436;DHT22;4255;48.730;9.156;2023-04-03T17:36:31;8.60;92.90
8436;DHT22;4255;48.730;9.156;2023-04-03T17:38:57;8.20;93.70
8436;DHT22;4255;48.730;9.156;2023-04-03T17:41:23;7.60;93.80
8436;DHT22;4255;48.730;9.156;2023-04-03T17:43:49;7.00;95.30
8436;DHT22;4255;48.730;9.156;2023-04-03T17:46:15;6.80;96.30
8436;DHT22;4255;48.730;9.156;2023-04-03T17:48:43;6.40;96.90
8436;DHT22;4255;48.730;9.156;2023-04-03T17:51:11;6.30;98.00
8436;DHT22;4255;48.730;9.156;2023-04-03T17:53:38;6.40;99.30
8436;DHT22;4255;48.730;9.156;2023-04-03T17:56:12;6.30;99.80
8436;DHT22;4255;48.730;9.156;2023-04-03T17:58:37;6.30;99.90
8436;DHT22;4255;48.730;9.156;2023-04-03T18:01:12;6.30;99.90
8436;DHT22;4255;48.730;9.156;2023-04-03T18:03:38;6.30;99.80
8436;DHT22;4255;48.730;9.156;2023-04-03T18:06:05;6.30;99.20
8436;DHT22;4255;48.730;9.156;2023-04-03T18:08:41;6.20;99.00
8436;DHT22;4255;48.730;9.156;2023-04-03T18:11:08;6.10;98.90
8436;DHT22;4255;48.730;9.156;2023-04-03T18:13:34;5.90;99.50
8436;DHT22;4255;48.730;9.156;2023-04-03T18:16:06;5.70;99.90
8436;DHT22;4255;48.730;9.156;2023-04-03T18:18:32;5.70;99.90
8436;DHT22;4255;48.730;9.156;2023-04-03T18:20:58;5.70;99.90
8436;DHT22;4255;48.730;9.156;2023-04-03T18:23:26;5.70;99.90